• Join FlightAware (Why Join?)
  • Login
  • US Flag 
07:08AM EDT


 

Airport Tracker/Info


-or-


 

Live Flight TrackerFlight Track Log ✈ SWA1092 ✈ 25-Jun-2013 ✈ KPHX - KLAS

Flight Track Log - Related Links

Times and Time Zones

All times are in EDT time to prevent confusion due to time zone crossing. See the SWA1092 flight status page for this flight to view local times or setup timezone preferences in your user account.

Time Position Orientation Groundspeed Altitude Reporting Facility
EDT Latitude Longitude Course Direction KTS MPH feet Rate Location/Type
02:01PM 33.4333 -111.9833 90° East 176 203 1,800  Level Phoenix TRACON
02:02PM 33.4333 -111.9000 90° East 249 287 3,900 2,160 Climbing Phoenix TRACON
02:03PM 33.4667 -111.8167 64° Northeast 283 326 6,800 2,880 Climbing Phoenix TRACON
02:04PM 33.5333 -111.7667 32° Northeast 303 349 9,500 2,940 Climbing Phoenix TRACON
02:05PM 33.6000 -111.7333 23° Northeast 316 364 12,200 2,460 Climbing Phoenix TRACON
02:06PM 33.6325 -111.7553 331° Northwest 315 362 13,100 1,920 Climbing Albuquerque Center
02:07PM 33.6872 -111.8444 306° West 333 383 15,300 2,040 Climbing Albuquerque Center
02:08PM 33.7508 -111.9353 310° West 349 402 17,400 2,340 Climbing Albuquerque Center
02:09PM 33.8408 -112.0422 315° West 377 434 20,200 2,280 Climbing Albuquerque Center
02:10PM 33.9189 -112.1306 317° Northwest 380 437 22,200 1,740 Climbing Albuquerque Center
02:11PM 34.0000 -112.2225 317° Northwest 394 453 23,900 1,740 Climbing Albuquerque Center
02:12PM 34.0839 -112.3153 318° Northwest 404 465 25,800 1,680 Climbing Albuquerque Center
02:13PM 34.1669 -112.4103 317° Northwest 408 470 27,400 1,020 Climbing Albuquerque Center
02:14PM 34.2561 -112.5069 318° Northwest 428 493 28,000 240 Climbing Albuquerque Center
02:15PM 34.3467 -112.6086 317° Northwest 440 506 28,000  Level Albuquerque Center
02:16PM 34.4361 -112.7128 316° Northwest 445 512 28,000  Level Albuquerque Center
02:17PM 34.5447 -112.8331 318° Northwest 452 520 28,000  Level Albuquerque Center
02:18PM 34.6358 -112.9381 317° Northwest 453 521 28,000  Level Albuquerque Center
02:19PM 34.7256 -113.0408 317° Northwest 448 516 28,000  Level Albuquerque Center
02:20PM 34.8133 -113.1414 317° Northwest 439 505 28,000  Level Albuquerque Center
02:21PM 34.9019 -113.2425 317° Northwest 437 503 28,000  Level Albuquerque Center
02:22PM 35.0006 -113.3719 313° West 438 504 28,000  Level Albuquerque Center
02:23PM 35.0589 -113.4997 299° West 433 498 28,000  Level Albuquerque Center
02:24PM 35.1181 -113.6269 300° West 431 496 28,000 -300 Level Albuquerque Center
02:25PM 35.1769 -113.7533 300° West 431 496 27,400 -1,380 Descending Albuquerque Center
02:26PM 35.2297 -113.8694 299° West 401 461 25,200 -2,100 Descending Albuquerque Center
02:27PM 35.2942 -113.9681 309° West 383 441 23,100 -2,220 Descending Albuquerque Center
02:29PM 35.4200 -114.0831 323° Northwest 368 423 19,900 -2,220 Descending Los Angeles Center
02:30PM 35.5031 -114.1606 323° Northwest 352 405 17,700 -2,100 Descending Los Angeles Center
02:31PM 35.5717 -114.2217 324° Northwest 352 405 16,000 -1,920 Descending Los Angeles Center
02:31PM 35.6047 -114.2531 322° Northwest 342 394 15,100 -1,680 Descending Los Angeles Center
02:32PM 35.6447 -114.2917 322° Northwest 330 380 14,000 -1,740 Descending Los Angeles Center
02:33PM 35.7294 -114.3706 323° Northwest 319 367 12,100 -1,680 Descending Los Angeles Center
02:34PM 35.7981 -114.4344 323° Northwest 311 358 10,600 -1,260 Descending Los Angeles Center
02:35PM 35.8594 -114.5019 318° Northwest 299 344 9,500 -960 Descending Los Angeles Center
02:36PM 35.9183 -114.5631 320° Northwest 283 326 8,700 -720 Descending Los Angeles Center
02:37PM 35.9678 -114.6372 309° West 278 320 8,100 -360 Descending Los Angeles Center
02:38PM 35.9986 -114.7297 292° West 286 329 8,000 -360 Descending Los Angeles Center
02:39PM 36.0369 -114.8406 293° West 244 281 7,300 -840 Descending Los Angeles Center
02:40PM 36.0567 -114.8975 293° West 239 275 6,100 -1,440 Descending Los Angeles Center
02:41PM 36.0733 -114.9775 284° West 188 216 4,500 -1,440 Descending Los Angeles Center
02:42PM 36.0739 -115.0386 271° West 171 197 3,400 -900 Descending Los Angeles Center
02:43PM 36.0731 -115.0947 269° West 154 177 2,700 -540 Descending Los Angeles Center
02:45PM 36.0744 -115.1492 272° West 151 174 2,200 -420 Descending Los Angeles Center